map of QRW home
QRW - Airport
Location
City:  Warri, Delta, Nigeria
Near (Alt.):Osubi
Name:Warri Airport
Old (Alt.):Osubi Airstrip
ICAO:DNSU
IATA:QRW

Details
Type:Airport (Aerodrome, Airfield)
Use:Public/Civil
Latitude:535'53"N (5.598056)
Longitude:549'07"E (5.818611)
Elevation:27 ft (8 m)
Variation:1.70W (WMM2015 magnetic declination)
0.11 annual change
Runways:1
Longest:6890 × 98 ft (2100 × 30 m), paved

Time
Time Zone:UTC+1
Local Time:

Weather
TAF:DNSU 190950Z 1912/2018 23010KT 9999 BKN013 PROB30
TEMPO 1912/1916 5000 -TSRA BKN009 FEW018CB
BECMG 1918/1920 VRB02KT SCT009

Related Locations
Nearby:
Farthest:CIS: 12180 mi / 19601 km
Kanton Island (Canton Island, Abariringa Island) [Canton Island Airport], P, KI

Find:

   beyond  
but within

Other Information
Maps:
NOTAMs:
Links:
Sources:

  
  • flag of Nigeria
  

Sectional Chart

Flight Planning
at skyvector.com

Satellite Image

Google Maps Satellite view

 

Copyright © 2004-2018 Karl L. Swartz. All rights reserved.
The Great Circle Mapper name and logo are trademarks of the Great Circle Mapper.
All other trademarks mentioned herein belong to their respective owners.
Please see credits for attibutions and further copyright information.

  Follow gcmap on Facebook Follow gcmap on Twitter Follow gcmap on Google+ GCmap on LinkedIn

hCard Microformat

Geo Microformat